sensor_id;sensor_type;location;lat;lon;timestamp;temperature;humidity
28823;DHT22;15961;54.678;9.110;2022-11-18T00:01:09;3.80;99.90
28823;DHT22;15961;54.678;9.110;2022-11-18T00:03:36;3.80;99.90
28823;DHT22;15961;54.678;9.110;2022-11-18T00:06:02;3.80;99.90
28823;DHT22;15961;54.678;9.110;2022-11-18T00:08:28;3.90;99.90
28823;DHT22;15961;54.678;9.110;2022-11-18T00:10:54;3.80;99.90
28823;DHT22;15961;54.678;9.110;2022-11-18T00:13:19;3.80;99.90
28823;DHT22;15961;54.678;9.110;2022-11-18T00:16:06;3.80;99.90
28823;DHT22;15961;54.678;9.110;2022-11-18T00:18:32;3.80;99.90
28823;DHT22;15961;54.678;9.110;2022-11-18T00:21:02;3.80;99.90
28823;DHT22;15961;54.678;9.110;2022-11-18T00:23:28;3.80;99.90
28823;DHT22;15961;54.678;9.110;2022-11-18T00:25:54;3.80;99.90
28823;DHT22;15961;54.678;9.110;2022-11-18T00:28:20;3.80;99.90
28823;DHT22;15961;54.678;9.110;2022-11-18T00:30:45;3.80;99.90
28823;DHT22;15961;54.678;9.110;2022-11-18T00:33:10;3.80;99.90
28823;DHT22;15961;54.678;9.110;2022-11-18T00:35:36;3.80;99.90
28823;DHT22;15961;54.678;9.110;2022-11-18T00:38:02;3.80;99.90
28823;DHT22;15961;54.678;9.110;2022-11-18T00:40:27;3.80;99.90
28823;DHT22;15961;54.678;9.110;2022-11-18T00:42:53;3.80;99.90
28823;DHT22;15961;54.678;9.110;2022-11-18T00:45:19;3.80;99.90
28823;DHT22;15961;54.678;9.110;2022-11-18T00:47:45;3.80;99.90
28823;DHT22;15961;54.678;9.110;2022-11-18T00:50:11;3.80;99.90
28823;DHT22;15961;54.678;9.110;2022-11-18T00:52:37;3.80;99.90
28823;DHT22;15961;54.678;9.110;2022-11-18T00:55:02;3.80;99.90
28823;DHT22;15961;54.678;9.110;2022-11-18T00:57:28;3.80;99.90
28823;DHT22;15961;54.678;9.110;2022-11-18T00:59:54;3.80;99.90
28823;DHT22;15961;54.678;9.110;2022-11-18T01:02:19;3.80;99.90
28823;DHT22;15961;54.678;9.110;2022-11-18T01:04:45;3.90;99.90
28823;DHT22;15961;54.678;9.110;2022-11-18T01:07:10;3.80;99.90
28823;DHT22;15961;54.678;9.110;2022-11-18T01:09:36;3.90;99.90
28823;DHT22;15961;54.678;9.110;2022-11-18T01:12:01;3.80;99.90
28823;DHT22;15961;54.678;9.110;2022-11-18T01:14:45;3.90;99.90
28823;DHT22;15961;54.678;9.110;2022-11-18T01:17:11;3.90;99.90
28823;DHT22;15961;54.678;9.110;2022-11-18T01:19:36;3.90;99.90
28823;DHT22;15961;54.678;9.110;2022-11-18T01:22:02;3.90;99.90
28823;DHT22;15961;54.678;9.110;2022-11-18T01:24:29;3.90;99.90
28823;DHT22;15961;54.678;9.110;2022-11-18T01:26:55;3.80;99.90
28823;DHT22;15961;54.678;9.110;2022-11-18T01:29:21;3.90;99.90
28823;DHT22;15961;54.678;9.110;2022-11-18T01:31:47;3.80;99.90
28823;DHT22;15961;54.678;9.110;2022-11-18T01:34:12;3.90;99.90
28823;DHT22;15961;54.678;9.110;2022-11-18T01:36:38;3.90;99.90
28823;DHT22;15961;54.678;9.110;2022-11-18T01:39:03;3.90;99.90
28823;DHT22;15961;54.678;9.110;2022-11-18T01:41:29;3.90;99.90
28823;DHT22;15961;54.678;9.110;2022-11-18T01:46:27;3.90;99.90
28823;DHT22;15961;54.678;9.110;2022-11-18T01:49:13;3.90;99.90
28823;DHT22;15961;54.678;9.110;2022-11-18T01:51:50;3.90;99.90
28823;DHT22;15961;54.678;9.110;2022-11-18T01:54:27;3.90;99.90
28823;DHT22;15961;54.678;9.110;2022-11-18T01:56:57;3.90;99.90
28823;DHT22;15961;54.678;9.110;2022-11-18T01:59:28;3.90;99.90
28823;DHT22;15961;54.678;9.110;2022-11-18T02:01:55;3.90;99.90
28823;DHT22;15961;54.678;9.110;2022-11-18T02:04:21;3.90;99.90
28823;DHT22;15961;54.678;9.110;2022-11-18T02:06:47;3.80;99.90
28823;DHT22;15961;54.678;9.110;2022-11-18T02:09:14;3.80;99.90
28823;DHT22;15961;54.678;9.110;2022-11-18T02:11:40;3.80;99.90
28823;DHT22;15961;54.678;9.110;2022-11-18T02:14:29;3.80;99.90
28823;DHT22;15961;54.678;9.110;2022-11-18T02:20:14;3.80;99.90
28823;DHT22;15961;54.678;9.110;2022-11-18T02:31:20;3.80;99.90
28823;DHT22;15961;54.678;9.110;2022-11-18T02:33:54;3.80;99.90
28823;DHT22;15961;54.678;9.110;2022-11-18T02:36:40;3.80;99.90
28823;DHT22;15961;54.678;9.110;2022-11-18T02:39:15;3.80;99.90
28823;DHT22;15961;54.678;9.110;2022-11-18T02:41:44;3.80;99.90
28823;DHT22;15961;54.678;9.110;2022-11-18T02:44:14;3.80;99.90
28823;DHT22;15961;54.678;9.110;2022-11-18T02:46:43;3.80;99.90
28823;DHT22;15961;54.678;9.110;2022-11-18T02:49:15;3.70;99.90
28823;DHT22;15961;54.678;9.110;2022-11-18T02:51:44;3.80;99.90
28823;DHT22;15961;54.678;9.110;2022-11-18T02:54:11;3.80;99.90
28823;DHT22;15961;54.678;9.110;2022-11-18T02:56:38;3.70;99.90
28823;DHT22;15961;54.678;9.110;2022-11-18T02:59:04;3.80;99.90
28823;DHT22;15961;54.678;9.110;2022-11-18T03:01:32;3.70;99.90
28823;DHT22;15961;54.678;9.110;2022-11-18T03:03:58;3.70;99.90
28823;DHT22;15961;54.678;9.110;2022-11-18T03:06:31;3.70;99.90
28823;DHT22;15961;54.678;9.110;2022-11-18T03:11:32;3.70;99.90
28823;DHT22;15961;54.678;9.110;2022-11-18T03:17:00;3.70;99.90
28823;DHT22;15961;54.678;9.110;2022-11-18T03:22:22;3.70;99.90
28823;DHT22;15961;54.678;9.110;2022-11-18T03:24:55;3.70;99.90
28823;DHT22;15961;54.678;9.110;2022-11-18T03:27:32;3.70;99.90
28823;DHT22;15961;54.678;9.110;2022-11-18T03:30:06;3.70;99.90
28823;DHT22;15961;54.678;9.110;2022-11-18T03:32:36;3.60;99.90
28823;DHT22;15961;54.678;9.110;2022-11-18T03:35:06;3.60;99.90
28823;DHT22;15961;54.678;9.110;2022-11-18T03:37:34;3.60;99.90
28823;DHT22;15961;54.678;9.110;2022-11-18T03:40:08;3.60;99.90
28823;DHT22;15961;54.678;9.110;2022-11-18T03:42:45;3.60;99.90
28823;DHT22;15961;54.678;9.110;2022-11-18T03:45:18;3.60;99.90
28823;DHT22;15961;54.678;9.110;2022-11-18T03:47:55;3.60;99.90
28823;DHT22;15961;54.678;9.110;2022-11-18T03:50:28;3.60;99.90
28823;DHT22;15961;54.678;9.110;2022-11-18T03:52:56;3.70;99.90
28823;DHT22;15961;54.678;9.110;2022-11-18T03:55:26;3.70;99.90
28823;DHT22;15961;54.678;9.110;2022-11-18T04:00:30;3.60;99.90
28823;DHT22;15961;54.678;9.110;2022-11-18T04:02:56;3.70;99.90
28823;DHT22;15961;54.678;9.110;2022-11-18T04:05:22;3.70;99.90
28823;DHT22;15961;54.678;9.110;2022-11-18T04:07:56;3.70;99.90
28823;DHT22;15961;54.678;9.110;2022-11-18T04:10:30;3.60;99.90
28823;DHT22;15961;54.678;9.110;2022-11-18T04:13:05;3.70;99.90
28823;DHT22;15961;54.678;9.110;2022-11-18T04:15:31;3.70;99.90
28823;DHT22;15961;54.678;9.110;2022-11-18T04:17:58;3.70;99.90
28823;DHT22;15961;54.678;9.110;2022-11-18T04:20:23;3.70;99.90
28823;DHT22;15961;54.678;9.110;2022-11-18T04:22:50;3.70;99.90
28823;DHT22;15961;54.678;9.110;2022-11-18T04:25:15;3.70;99.90
28823;DHT22;15961;54.678;9.110;2022-11-18T04:27:41;3.70;99.90
28823;DHT22;15961;54.678;9.110;2022-11-18T04:30:07;3.70;99.90
28823;DHT22;15961;54.678;9.110;2022-11-18T04:32:33;3.70;99.90
28823;DHT22;15961;54.678;9.110;2022-11-18T04:34:59;3.70;99.90
28823;DHT22;15961;54.678;9.110;2022-11-18T04:37:25;3.70;99.90
28823;DHT22;15961;54.678;9.110;2022-11-18T04:39:50;3.70;99.90
28823;DHT22;15961;54.678;9.110;2022-11-18T04:42:16;3.70;99.90
28823;DHT22;15961;54.678;9.110;2022-11-18T04:44:42;3.70;99.90
28823;DHT22;15961;54.678;9.110;2022-11-18T04:47:07;3.70;99.90
28823;DHT22;15961;54.678;9.110;2022-11-18T04:49:33;3.70;99.90
28823;DHT22;15961;54.678;9.110;2022-11-18T04:52:00;3.60;99.90
28823;DHT22;15961;54.678;9.110;2022-11-18T04:54:26;3.60;99.90
28823;DHT22;15961;54.678;9.110;2022-11-18T04:56:52;3.50;99.90
28823;DHT22;15961;54.678;9.110;2022-11-18T04:59:22;3.50;99.90
28823;DHT22;15961;54.678;9.110;2022-11-18T05:01:48;3.50;99.90
28823;DHT22;15961;54.678;9.110;2022-11-18T05:04:17;3.50;99.90
28823;DHT22;15961;54.678;9.110;2022-11-18T05:06:43;3.50;99.90
28823;DHT22;15961;54.678;9.110;2022-11-18T05:09:09;3.50;99.90
28823;DHT22;15961;54.678;9.110;2022-11-18T05:11:35;3.50;99.90
28823;DHT22;15961;54.678;9.110;2022-11-18T05:14:19;3.40;99.90
28823;DHT22;15961;54.678;9.110;2022-11-18T05:16:45;3.40;99.90
28823;DHT22;15961;54.678;9.110;2022-11-18T05:19:10;3.40;99.90
28823;DHT22;15961;54.678;9.110;2022-11-18T05:21:36;3.40;99.90
28823;DHT22;15961;54.678;9.110;2022-11-18T05:24:03;3.30;99.90
28823;DHT22;15961;54.678;9.110;2022-11-18T05:26:29;3.30;99.90
28823;DHT22;15961;54.678;9.110;2022-11-18T05:28:54;3.30;99.90
28823;DHT22;15961;54.678;9.110;2022-11-18T05:31:20;3.20;99.90
28823;DHT22;15961;54.678;9.110;2022-11-18T05:33:46;3.10;99.90
28823;DHT22;15961;54.678;9.110;2022-11-18T05:36:14;3.10;99.90
28823;DHT22;15961;54.678;9.110;2022-11-18T05:38:40;3.00;99.90
28823;DHT22;15961;54.678;9.110;2022-11-18T05:41:06;3.00;99.90
28823;DHT22;15961;54.678;9.110;2022-11-18T05:43:33;3.00;99.90
28823;DHT22;15961;54.678;9.110;2022-11-18T05:45:59;3.00;99.90
28823;DHT22;15961;54.678;9.110;2022-11-18T05:48:25;2.90;99.90
28823;DHT22;15961;54.678;9.110;2022-11-18T05:50:52;2.90;99.90
28823;DHT22;15961;54.678;9.110;2022-11-18T05:53:20;2.90;99.90
28823;DHT22;15961;54.678;9.110;2022-11-18T05:55:57;2.90;99.90
28823;DHT22;15961;54.678;9.110;2022-11-18T05:58:24;2.90;99.90
28823;DHT22;15961;54.678;9.110;2022-11-18T06:00:53;2.90;99.90
28823;DHT22;15961;54.678;9.110;2022-11-18T06:03:25;3.00;99.90
28823;DHT22;15961;54.678;9.110;2022-11-18T06:05:55;3.00;99.90
28823;DHT22;15961;54.678;9.110;2022-11-18T06:08:24;3.10;99.90
28823;DHT22;15961;54.678;9.110;2022-11-18T06:10:51;3.00;99.90
28823;DHT22;15961;54.678;9.110;2022-11-18T06:13:21;3.00;99.90
28823;DHT22;15961;54.678;9.110;2022-11-18T06:15:48;2.90;99.90
28823;DHT22;15961;54.678;9.110;2022-11-18T06:18:26;2.90;99.90
28823;DHT22;15961;54.678;9.110;2022-11-18T06:20:55;2.90;99.90
28823;DHT22;15961;54.678;9.110;2022-11-18T06:23:22;2.90;99.90
28823;DHT22;15961;54.678;9.110;2022-11-18T06:25:48;2.90;99.90
28823;DHT22;15961;54.678;9.110;2022-11-18T06:28:15;2.90;99.90
28823;DHT22;15961;54.678;9.110;2022-11-18T06:30:41;2.90;99.90
28823;DHT22;15961;54.678;9.110;2022-11-18T06:33:07;2.80;99.90
28823;DHT22;15961;54.678;9.110;2022-11-18T06:35:33;2.70;99.90
28823;DHT22;15961;54.678;9.110;2022-11-18T06:37:59;2.70;99.90
28823;DHT22;15961;54.678;9.110;2022-11-18T06:40:24;2.70;99.90
28823;DHT22;15961;54.678;9.110;2022-11-18T06:42:50;2.70;99.90
28823;DHT22;15961;54.678;9.110;2022-11-18T06:45:34;2.70;99.90
28823;DHT22;15961;54.678;9.110;2022-11-18T06:48:00;2.60;99.90
28823;DHT22;15961;54.678;9.110;2022-11-18T06:50:26;2.50;99.90
28823;DHT22;15961;54.678;9.110;2022-11-18T06:52:52;2.40;99.90
28823;DHT22;15961;54.678;9.110;2022-11-18T06:55:18;2.30;99.90
28823;DHT22;15961;54.678;9.110;2022-11-18T06:57:43;2.30;99.90
28823;DHT22;15961;54.678;9.110;2022-11-18T07:00:09;2.30;99.90
28823;DHT22;15961;54.678;9.110;2022-11-18T07:02:35;2.20;99.90
28823;DHT22;15961;54.678;9.110;2022-11-18T07:05:02;2.30;99.90
28823;DHT22;15961;54.678;9.110;2022-11-18T07:07:27;2.20;99.90
28823;DHT22;15961;54.678;9.110;2022-11-18T07:09:53;2.20;99.90
28823;DHT22;15961;54.678;9.110;2022-11-18T07:12:19;2.20;99.90
28823;DHT22;15961;54.678;9.110;2022-11-18T07:14:44;2.20;99.90
28823;DHT22;15961;54.678;9.110;2022-11-18T07:17:10;2.20;99.90
28823;DHT22;15961;54.678;9.110;2022-11-18T07:19:35;2.20;99.90
28823;DHT22;15961;54.678;9.110;2022-11-18T07:22:01;2.20;99.90
28823;DHT22;15961;54.678;9.110;2022-11-18T07:24:26;2.30;99.90
28823;DHT22;15961;54.678;9.110;2022-11-18T07:26:52;2.30;99.90
28823;DHT22;15961;54.678;9.110;2022-11-18T07:29:18;2.30;99.90
28823;DHT22;15961;54.678;9.110;2022-11-18T07:31:44;2.30;99.90
28823;DHT22;15961;54.678;9.110;2022-11-18T07:34:10;2.50;99.90
28823;DHT22;15961;54.678;9.110;2022-11-18T07:36:36;2.40;99.90
28823;DHT22;15961;54.678;9.110;2022-11-18T07:39:04;2.50;99.90
28823;DHT22;15961;54.678;9.110;2022-11-18T07:41:29;2.50;99.90
28823;DHT22;15961;54.678;9.110;2022-11-18T07:43:57;2.50;99.90
28823;DHT22;15961;54.678;9.110;2022-11-18T07:46:25;2.50;99.90
28823;DHT22;15961;54.678;9.110;2022-11-18T07:48:52;2.50;99.90
28823;DHT22;15961;54.678;9.110;2022-11-18T07:51:20;2.50;99.90
28823;DHT22;15961;54.678;9.110;2022-11-18T07:53:46;2.60;99.90
28823;DHT22;15961;54.678;9.110;2022-11-18T07:56:12;2.60;99.90
28823;DHT22;15961;54.678;9.110;2022-11-18T07:58:38;2.60;99.90
28823;DHT22;15961;54.678;9.110;2022-11-18T08:03:33;2.80;99.90
28823;DHT22;15961;54.678;9.110;2022-11-18T08:05:59;2.90;99.90
28823;DHT22;15961;54.678;9.110;2022-11-18T08:08:25;2.90;99.90
28823;DHT22;15961;54.678;9.110;2022-11-18T08:10:53;2.90;99.90
28823;DHT22;15961;54.678;9.110;2022-11-18T08:13:19;2.90;99.90
28823;DHT22;15961;54.678;9.110;2022-11-18T08:15:44;2.90;99.90
28823;DHT22;15961;54.678;9.110;2022-11-18T08:18:10;2.90;99.90
28823;DHT22;15961;54.678;9.110;2022-11-18T08:20:35;2.90;99.90
28823;DHT22;15961;54.678;9.110;2022-11-18T08:23:01;2.90;99.90
28823;DHT22;15961;54.678;9.110;2022-11-18T08:25:27;3.00;99.90
28823;DHT22;15961;54.678;9.110;2022-11-18T08:27:52;3.00;99.90
28823;DHT22;15961;54.678;9.110;2022-11-18T08:30:18;3.00;99.90
28823;DHT22;15961;54.678;9.110;2022-11-18T08:32:43;3.00;99.90
28823;DHT22;15961;54.678;9.110;2022-11-18T08:35:09;3.10;99.90
28823;DHT22;15961;54.678;9.110;2022-11-18T08:37:34;3.10;99.90
28823;DHT22;15961;54.678;9.110;2022-11-18T08:40:00;3.10;99.90
28823;DHT22;15961;54.678;9.110;2022-11-18T08:42:25;3.20;99.90
28823;DHT22;15961;54.678;9.110;2022-11-18T08:44:51;3.30;99.90
28823;DHT22;15961;54.678;9.110;2022-11-18T08:47:16;3.30;99.90
28823;DHT22;15961;54.678;9.110;2022-11-18T08:49:42;3.40;99.90
28823;DHT22;15961;54.678;9.110;2022-11-18T08:52:08;3.40;99.90
28823;DHT22;15961;54.678;9.110;2022-11-18T08:54:34;3.50;99.90
28823;DHT22;15961;54.678;9.110;2022-11-18T08:57:00;3.50;99.90
28823;DHT22;15961;54.678;9.110;2022-11-18T08:59:25;3.50;99.90
28823;DHT22;15961;54.678;9.110;2022-11-18T09:01:51;3.60;99.90
28823;DHT22;15961;54.678;9.110;2022-11-18T09:04:17;3.70;99.90
28823;DHT22;15961;54.678;9.110;2022-11-18T09:06:43;3.70;99.90
28823;DHT22;15961;54.678;9.110;2022-11-18T09:09:08;3.70;99.90
28823;DHT22;15961;54.678;9.110;2022-11-18T09:11:36;3.80;99.90
28823;DHT22;15961;54.678;9.110;2022-11-18T09:14:02;3.80;99.90
28823;DHT22;15961;54.678;9.110;2022-11-18T09:16:29;3.90;99.90
28823;DHT22;15961;54.678;9.110;2022-11-18T09:18:56;3.90;99.90
28823;DHT22;15961;54.678;9.110;2022-11-18T09:21:23;4.00;99.90
28823;DHT22;15961;54.678;9.110;2022-11-18T09:23:49;4.10;99.90
28823;DHT22;15961;54.678;9.110;2022-11-18T09:26:16;4.10;99.90
28823;DHT22;15961;54.678;9.110;2022-11-18T09:28:43;4.20;99.90
28823;DHT22;15961;54.678;9.110;2022-11-18T09:31:11;4.20;99.90
28823;DHT22;15961;54.678;9.110;2022-11-18T09:33:37;4.20;99.90
28823;DHT22;15961;54.678;9.110;2022-11-18T09:36:15;4.30;99.90
28823;DHT22;15961;54.678;9.110;2022-11-18T09:38:40;4.30;99.90
28823;DHT22;15961;54.678;9.110;2022-11-18T09:49:36;4.60;99.90
28823;DHT22;15961;54.678;9.110;2022-11-18T09:54:37;4.70;99.90
28823;DHT22;15961;54.678;9.110;2022-11-18T09:57:13;4.70;99.90
28823;DHT22;15961;54.678;9.110;2022-11-18T09:59:39;4.80;99.90
28823;DHT22;15961;54.678;9.110;2022-11-18T10:03:06;4.80;99.90
28823;DHT22;15961;54.678;9.110;2022-11-18T10:05:18;4.80;99.90
28823;DHT22;15961;54.678;9.110;2022-11-18T10:10:22;4.90;99.90
28823;DHT22;15961;54.678;9.110;2022-11-18T10:12:55;5.00;99.90
28823;DHT22;15961;54.678;9.110;2022-11-18T10:15:34;5.00;99.90
28823;DHT22;15961;54.678;9.110;2022-11-18T10:18:19;5.20;99.90
28823;DHT22;15961;54.678;9.110;2022-11-18T10:23:57;5.90;99.90
28823;DHT22;15961;54.678;9.110;2022-11-18T10:26:32;6.10;99.90
28823;DHT22;15961;54.678;9.110;2022-11-18T10:28:58;6.20;99.90
28823;DHT22;15961;54.678;9.110;2022-11-18T10:31:24;6.30;99.90
28823;DHT22;15961;54.678;9.110;2022-11-18T10:33:58;6.30;99.90
28823;DHT22;15961;54.678;9.110;2022-11-18T10:36:24;6.40;99.90
28823;DHT22;15961;54.678;9.110;2022-11-18T10:39:09;6.40;99.90
28823;DHT22;15961;54.678;9.110;2022-11-18T10:41:47;6.40;99.90
28823;DHT22;15961;54.678;9.110;2022-11-18T10:44:39;6.50;99.90
28823;DHT22;15961;54.678;9.110;2022-11-18T10:47:28;6.30;99.90
28823;DHT22;15961;54.678;9.110;2022-11-18T10:49:59;6.20;99.90
28823;DHT22;15961;54.678;9.110;2022-11-18T10:52:26;6.20;99.90
28823;DHT22;15961;54.678;9.110;2022-11-18T10:57:44;6.00;99.90
28823;DHT22;15961;54.678;9.110;2022-11-18T11:00:34;6.10;99.90
28823;DHT22;15961;54.678;9.110;2022-11-18T11:03:25;6.00;99.90
28823;DHT22;15961;54.678;9.110;2022-11-18T11:08:53;6.20;99.90
28823;DHT22;15961;54.678;9.110;2022-11-18T11:11:24;6.30;99.90
28823;DHT22;15961;54.678;9.110;2022-11-18T11:14:13;6.40;99.90
28823;DHT22;15961;54.678;9.110;2022-11-18T11:16:47;6.50;99.90
28823;DHT22;15961;54.678;9.110;2022-11-18T11:19:13;6.60;99.90
28823;DHT22;15961;54.678;9.110;2022-11-18T11:21:41;6.60;99.90
28823;DHT22;15961;54.678;9.110;2022-11-18T11:24:10;6.60;99.90
28823;DHT22;15961;54.678;9.110;2022-11-18T11:27:12;6.50;99.90
28823;DHT22;15961;54.678;9.110;2022-11-18T11:32:24;6.70;99.90
28823;DHT22;15961;54.678;9.110;2022-11-18T11:35:06;6.80;99.90
28823;DHT22;15961;54.678;9.110;2022-11-18T11:38:16;7.00;99.90
28823;DHT22;15961;54.678;9.110;2022-11-18T11:56:59;6.70;99.90
28823;DHT22;15961;54.678;9.110;2022-11-18T11:59:44;6.70;99.90
28823;DHT22;15961;54.678;9.110;2022-11-18T12:02:49;6.70;99.90
28823;DHT22;15961;54.678;9.110;2022-11-18T12:05:37;6.80;99.90
28823;DHT22;15961;54.678;9.110;2022-11-18T12:08:11;6.80;99.90
28823;DHT22;15961;54.678;9.110;2022-11-18T12:10:45;6.90;99.90
28823;DHT22;15961;54.678;9.110;2022-11-18T12:13:15;6.90;99.90
28823;DHT22;15961;54.678;9.110;2022-11-18T12:20:53;7.50;99.90
28823;DHT22;15961;54.678;9.110;2022-11-18T12:23:21;7.70;99.90
28823;DHT22;15961;54.678;9.110;2022-11-18T12:26:01;7.70;99.90
28823;DHT22;15961;54.678;9.110;2022-11-18T12:28:41;7.60;99.90
28823;DHT22;15961;54.678;9.110;2022-11-18T12:36:34;7.10;99.90
28823;DHT22;15961;54.678;9.110;2022-11-18T12:41:58;6.80;99.90
28823;DHT22;15961;54.678;9.110;2022-11-18T12:44:44;6.90;99.90
28823;DHT22;15961;54.678;9.110;2022-11-18T12:47:11;7.10;99.90
28823;DHT22;15961;54.678;9.110;2022-11-18T12:52:06;7.30;99.90
28823;DHT22;15961;54.678;9.110;2022-11-18T12:54:49;7.50;99.90
28823;DHT22;15961;54.678;9.110;2022-11-18T12:59:48;8.70;99.90
28823;DHT22;15961;54.678;9.110;2022-11-18T13:02:31;9.30;99.90
28823;DHT22;15961;54.678;9.110;2022-11-18T13:05:10;9.40;99.90
28823;DHT22;15961;54.678;9.110;2022-11-18T13:07:54;9.50;99.90
28823;DHT22;15961;54.678;9.110;2022-11-18T13:10:52;9.20;99.90
28823;DHT22;15961;54.678;9.110;2022-11-18T13:13:39;8.70;99.90
28823;DHT22;15961;54.678;9.110;2022-11-18T13:16:25;8.50;99.90
28823;DHT22;15961;54.678;9.110;2022-11-18T13:19:29;8.20;99.90
28823;DHT22;15961;54.678;9.110;2022-11-18T13:21:56;7.90;99.90
28823;DHT22;15961;54.678;9.110;2022-11-18T13:24:46;7.70;99.90
28823;DHT22;15961;54.678;9.110;2022-11-18T13:30:31;7.80;99.90
28823;DHT22;15961;54.678;9.110;2022-11-18T13:32:58;7.90;99.90
28823;DHT22;15961;54.678;9.110;2022-11-18T13:35:25;7.80;99.90
28823;DHT22;15961;54.678;9.110;2022-11-18T13:37:58;7.40;99.90
28823;DHT22;15961;54.678;9.110;2022-11-18T13:40:29;7.10;99.90
28823;DHT22;15961;54.678;9.110;2022-11-18T13:42:55;6.80;99.90
28823;DHT22;15961;54.678;9.110;2022-11-18T13:45:25;6.50;99.90
28823;DHT22;15961;54.678;9.110;2022-11-18T13:47:57;6.40;99.90
28823;DHT22;15961;54.678;9.110;2022-11-18T13:50:34;6.50;99.90
28823;DHT22;15961;54.678;9.110;2022-11-18T13:53:48;6.70;99.90
28823;DHT22;15961;54.678;9.110;2022-11-18T13:56:44;6.90;99.90
28823;DHT22;15961;54.678;9.110;2022-11-18T13:58:53;7.10;99.90
28823;DHT22;15961;54.678;9.110;2022-11-18T14:01:28;7.00;99.90
28823;DHT22;15961;54.678;9.110;2022-11-18T14:03:56;7.00;99.90
28823;DHT22;15961;54.678;9.110;2022-11-18T14:06:28;6.90;99.90
28823;DHT22;15961;54.678;9.110;2022-11-18T14:09:21;6.80;99.90
28823;DHT22;15961;54.678;9.110;2022-11-18T14:12:19;6.80;99.90
28823;DHT22;15961;54.678;9.110;2022-11-18T14:14:46;6.60;99.90
28823;DHT22;15961;54.678;9.110;2022-11-18T14:17:23;6.50;99.90
28823;DHT22;15961;54.678;9.110;2022-11-18T14:19:54;6.40;99.90
28823;DHT22;15961;54.678;9.110;2022-11-18T14:22:23;6.40;99.90
28823;DHT22;15961;54.678;9.110;2022-11-18T14:27:40;6.10;99.90
28823;DHT22;15961;54.678;9.110;2022-11-18T14:30:54;5.80;99.90
28823;DHT22;15961;54.678;9.110;2022-11-18T14:33:22;5.40;99.90
28823;DHT22;15961;54.678;9.110;2022-11-18T14:38:35;5.00;99.90
28823;DHT22;15961;54.678;9.110;2022-11-18T14:41:05;5.00;99.90
28823;DHT22;15961;54.678;9.110;2022-11-18T14:43:31;5.10;99.90
28823;DHT22;15961;54.678;9.110;2022-11-18T14:46:00;5.20;99.90
28823;DHT22;15961;54.678;9.110;2022-11-18T14:48:27;5.20;99.90
28823;DHT22;15961;54.678;9.110;2022-11-18T14:50:54;5.30;99.90
28823;DHT22;15961;54.678;9.110;2022-11-18T14:53:19;5.30;99.90
28823;DHT22;15961;54.678;9.110;2022-11-18T14:55:49;5.30;99.90
28823;DHT22;15961;54.678;9.110;2022-11-18T14:58:15;5.20;99.90
28823;DHT22;15961;54.678;9.110;2022-11-18T15:00:42;5.20;99.90
28823;DHT22;15961;54.678;9.110;2022-11-18T15:03:08;5.00;99.90
28823;DHT22;15961;54.678;9.110;2022-11-18T15:05:34;4.80;99.90
28823;DHT22;15961;54.678;9.110;2022-11-18T15:07:59;4.50;99.90
28823;DHT22;15961;54.678;9.110;2022-11-18T15:10:25;4.30;99.90
28823;DHT22;15961;54.678;9.110;2022-11-18T15:12:50;4.20;99.90
28823;DHT22;15961;54.678;9.110;2022-11-18T15:15:16;4.10;99.90
28823;DHT22;15961;54.678;9.110;2022-11-18T15:17:41;4.10;99.90
28823;DHT22;15961;54.678;9.110;2022-11-18T15:20:12;4.00;99.90
28823;DHT22;15961;54.678;9.110;2022-11-18T15:22:38;3.80;99.90
28823;DHT22;15961;54.678;9.110;2022-11-18T15:25:05;3.50;99.90
28823;DHT22;15961;54.678;9.110;2022-11-18T15:27:30;3.40;99.90
28823;DHT22;15961;54.678;9.110;2022-11-18T15:29:56;3.30;99.90
28823;DHT22;15961;54.678;9.110;2022-11-18T15:32:21;3.20;99.90
28823;DHT22;15961;54.678;9.110;2022-11-18T15:34:47;3.10;99.90
28823;DHT22;15961;54.678;9.110;2022-11-18T15:37:13;3.10;99.90
28823;DHT22;15961;54.678;9.110;2022-11-18T15:39:38;3.00;99.90
28823;DHT22;15961;54.678;9.110;2022-11-18T15:42:04;2.90;99.90
28823;DHT22;15961;54.678;9.110;2022-11-18T15:44:29;2.70;99.90
28823;DHT22;15961;54.678;9.110;2022-11-18T15:46:55;2.50;99.90
28823;DHT22;15961;54.678;9.110;2022-11-18T15:49:21;2.40;99.90
28823;DHT22;15961;54.678;9.110;2022-11-18T15:51:47;2.20;99.90
28823;DHT22;15961;54.678;9.110;2022-11-18T15:54:13;2.10;99.90
28823;DHT22;15961;54.678;9.110;2022-11-18T15:56:39;2.00;99.90
28823;DHT22;15961;54.678;9.110;2022-11-18T15:59:13;2.00;99.90
28823;DHT22;15961;54.678;9.110;2022-11-18T16:01:41;2.10;99.90
28823;DHT22;15961;54.678;9.110;2022-11-18T16:04:09;2.20;99.90
28823;DHT22;15961;54.678;9.110;2022-11-18T16:06:35;2.30;99.90
28823;DHT22;15961;54.678;9.110;2022-11-18T16:09:01;2.50;99.90
28823;DHT22;15961;54.678;9.110;2022-11-18T16:11:28;2.60;99.90
28823;DHT22;15961;54.678;9.110;2022-11-18T16:14:14;2.60;99.90
28823;DHT22;15961;54.678;9.110;2022-11-18T16:16:41;2.60;99.90
28823;DHT22;15961;54.678;9.110;2022-11-18T16:19:09;2.70;99.90
28823;DHT22;15961;54.678;9.110;2022-11-18T16:21:38;2.80;99.90
28823;DHT22;15961;54.678;9.110;2022-11-18T16:24:05;2.90;99.90
28823;DHT22;15961;54.678;9.110;2022-11-18T16:26:32;3.00;99.90
28823;DHT22;15961;54.678;9.110;2022-11-18T16:28:58;3.10;99.90
28823;DHT22;15961;54.678;9.110;2022-11-18T16:31:25;3.20;99.90
28823;DHT22;15961;54.678;9.110;2022-11-18T16:34:07;3.20;99.90
28823;DHT22;15961;54.678;9.110;2022-11-18T16:36:34;3.30;99.90
28823;DHT22;15961;54.678;9.110;2022-11-18T16:39:08;3.40;99.90
28823;DHT22;15961;54.678;9.110;2022-11-18T16:41:34;3.50;99.90
28823;DHT22;15961;54.678;9.110;2022-11-18T16:44:05;3.50;99.90
28823;DHT22;15961;54.678;9.110;2022-11-18T16:46:32;3.60;99.90
28823;DHT22;15961;54.678;9.110;2022-11-18T16:48:58;3.60;99.90
28823;DHT22;15961;54.678;9.110;2022-11-18T16:51:26;3.60;99.90
28823;DHT22;15961;54.678;9.110;2022-11-18T16:53:53;3.70;99.90
28823;DHT22;15961;54.678;9.110;2022-11-18T16:56:24;3.70;99.90
28823;DHT22;15961;54.678;9.110;2022-11-18T16:58:55;3.80;99.90
28823;DHT22;15961;54.678;9.110;2022-11-18T17:01:21;3.80;99.90
28823;DHT22;15961;54.678;9.110;2022-11-18T17:03:49;3.80;99.90
28823;DHT22;15961;54.678;9.110;2022-11-18T17:06:16;3.80;99.90
28823;DHT22;15961;54.678;9.110;2022-11-18T17:08:41;3.90;99.90
28823;DHT22;15961;54.678;9.110;2022-11-18T17:11:08;3.80;99.90
28823;DHT22;15961;54.678;9.110;2022-11-18T17:13:35;3.80;99.90
28823;DHT22;15961;54.678;9.110;2022-11-18T17:16:13;3.80;99.90
28823;DHT22;15961;54.678;9.110;2022-11-18T17:18:39;3.80;99.90
28823;DHT22;15961;54.678;9.110;2022-11-18T17:21:11;3.80;99.90
28823;DHT22;15961;54.678;9.110;2022-11-18T17:23:37;3.70;99.90
28823;DHT22;15961;54.678;9.110;2022-11-18T17:26:04;3.60;99.90
28823;DHT22;15961;54.678;9.110;2022-11-18T17:28:31;3.60;99.90
28823;DHT22;15961;54.678;9.110;2022-11-18T17:30:57;3.50;99.90
28823;DHT22;15961;54.678;9.110;2022-11-18T17:33:23;3.40;99.90
28823;DHT22;15961;54.678;9.110;2022-11-18T17:36:12;3.40;99.90
28823;DHT22;15961;54.678;9.110;2022-11-18T17:38:39;3.40;99.90